Tiempo atmosférico en la estación meteorológica de Fraga, Huesca (170 m.)



Fecha
DESCASC
Temp. máxima en grados centígrados (hora)
DESCASC
Temp. mínima en grados centígrados (hora)
DESCASC
Temp. media en grados centígrados
DESCASC
Racha de viento máxima en m/sg (hora)
DESCASC
Velocidad máxima media en intervalos de 10 minutos(hora)
DESCASC
Precipitaciones diarias en mm
DESCASC
Precipitaciones de 00:00 a 06:00 en mm
DESCASC
Precipitaciones de 06:00 a 12:00 en mm
DESCASC
Precipitaciones de 12:00 a 18:00 en mm
DESCASC
Precipitaciones de 18:00 a 24:00 en mm
DESCASC
18-08-2019 36.7 (16:00) 22 (06:50) 29.4 12.5 (19:50) 7.22 (19:50) 0 0 0 0 0
17-08-2019 35.3 (16:00) 21.1 (07:10) 28.2 12.78 (20:40) 8.06 (20:40) 0 0 0 0 0
16-08-2019 34.8 (16:40) 17.5 (07:30) 26.1 9.44 (20:30) 5.28 (20:30) 0 0 0 0 0
15-08-2019 35 (17:40) 20.5 (00:00) 27.8 9.17 (17:40) 6.67 (19:00) 0 0 0 0 0
14-08-2019 34.8 (18:20) 16.3 (00:00) 25.5 10.83 (16:20) 6.11 (17:00) 0 0 0 0 0
13-08-2019 30.3 (18:50) 16.5 (00:00) 23.4 8.33 (01:10) 4.72 (14:30) 0 0 0 0 0
12-08-2019 31 (17:20) 19 (00:00) 25 11.67 (15:40) 6.67 (15:40) 0 0 0 0 0
11-08-2019 32.8 (16:10) 23.8 (00:00) 28.3 8.61 (15:10) 5 (23:20) 0 0 0 0 0
10-08-2019 35.5 (16:30) 23.1 (00:00) 29.3 15.28 (00:10) 10.28 (00:10) 0 0 0 0 0
09-08-2019 40.8 (16:40) 22.2 (00:00) 31.5 17.22 (23:40) 11.11 (23:40) 0 0 0 0 0
08-08-2019 37.7 (17:40) 22.1 (00:00) 29.9 8.61 (15:20) 5.56 (20:30) 0 0 0 0 0
07-08-2019 31.9 (19:40) 23.4 (00:00) 27.6 8.89 (00:20) 5.83 (01:30) 0 0 0 0 0
06-08-2019 38 (18:00) 23.5 (00:00) 30.8 9.17 (20:10) 5.28 (22:40) 0 0 0 0 0
05-08-2019 35.6 (15:30) 22 (00:00) 28.8 10.28 (19:00) 6.39 (18:20) 0 0 0 0 0
04-08-2019 35.9 (16:20) 21.5 (00:00) 28.7 11.67 (18:40) 7.22 (20:30) 0 0 0 0 0
03-08-2019 35.6 (15:20) 20.4 (00:00) 28 11.67 (18:50) 6.94 (19:10) 0 0 0 0 0
02-08-2019 36.1 (18:00) 19.1 (00:00) 27.6 10 (19:10) 6.67 (19:10) 0 0 0 0 0
01-08-2019 34 (16:20) 20.2 (00:00) 27.1 9.44 (18:30) 6.11 (18:30) 0 0 0 0 0
31-07-2019 31.1 (15:50) 17.4 (00:00) 24.3 10.28 (20:20) 5.56 (19:50) 0 0 0 0 0
30-07-2019 32.7 (17:20) 18.9 (00:00) 25.8 9.44 (20:20) 6.67 (20:20) 0 0 0 0 0
29-07-2019 35.5 (17:50) 15.4 (00:00) 25.4 8.33 (22:20) 4.17 (21:40) 0 0 0 0 0
28-07-2019 31 (17:20) 16.9 (00:00) 23.9 11.94 (00:10) 7.78 (00:10) 0 0 0 0 0
27-07-2019 29 (17:20) 19.8 (00:00) 24.4 18.06 (20:40) 10.28 (20:40) 0.4 0 0.2 0.2 0
26-07-2019 30.5 (18:40) 22.7 (00:00) 26.6 13.89 (16:30) 9.44 (16:20) 3.2 1.6 0 1.6 0
25-07-2019 36.5 (15:50) 22.3 (00:00) 29.4 13.33 (17:10) 7.78 (18:00) 0 0 0 0 0
24-07-2019 38.5 (17:00) 20.9 (00:00) 29.7 12.22 (18:20) 7.22 (20:20) 0 0 0 0 0

Gráficas

Temp. máximas Temp. mínimas Temp. medias Precipitaciones Rachas de viento máximas Velocidades máximas media en intervalos de 10 minutos

Datos horarios

Fecha y hora oficial Temperatura (ºC) Velocidad del viento (km/h) Dirección del viento Racha (km/h) Dirección de racha Precipitación (mm) Presión (hPa) Tendencia (hPa) Humedad (%)
2019-08-22 23:00:00 25 8 Sudeste 22 Sudeste 0 -- -- 58
2019-08-22 22:00:00 26.4 5 Sudeste 15 Sudeste 0 -- -- 39
2019-08-22 21:00:00 28.3 3 Sur 10 Sur 0 -- -- 33
2019-08-22 20:00:00 30.3 5 Sur 13 Sur 0 -- -- 30
2019-08-22 19:00:00 30.9 6 Sur 17 Oeste 0 -- -- 31
2019-08-22 18:00:00 31.4 6 Sur 22 Sudoeste 0 -- -- 32
2019-08-22 17:00:00 31.6 10 Oeste 23 Oeste 0 -- -- 31
2019-08-22 16:00:00 30.9 12 Oeste 23 Oeste 0 -- -- 36
2019-08-22 15:00:00 29.4 8 Oeste 23 Oeste 0 -- -- 40
2019-08-22 14:00:00 28.3 10 Oeste 23 Oeste 0 -- -- 42
2019-08-22 13:00:00 26.8 7 Oeste 20 Oeste 0 -- -- 47
2019-08-22 12:00:00 24.2 6 Noroeste 13 Noroeste 0 -- -- 55
2019-08-22 11:00:00 22.4 4 Sur 10 Sudoeste 0 -- -- 62
2019-08-22 10:00:00 20.5 5 Noroeste 10 Noroeste 0 -- -- 68
2019-08-22 09:00:00 19.4 4 Oeste 14 Sudoeste 0 -- -- 70
2019-08-22 08:00:00 18.2 3 Sudoeste 9 Sudoeste 0 -- -- 75
2019-08-22 07:00:00 18.3 4 Sudoeste 9 Oeste 0 -- -- 82
2019-08-22 06:00:00 19 4 Sudoeste 10 Oeste 0 -- -- 83
2019-08-22 05:00:00 20.1 5 Oeste 14 Noroeste 0 -- -- 84
2019-08-22 04:00:00 21.5 8 Sudoeste 18 Sudoeste 0 -- -- 78
2019-08-22 03:00:00 21.3 4 Sudoeste 6 Sur 0 -- -- 84
2019-08-22 02:00:00 22.6 4 Sudoeste 6 Sudoeste 0 -- -- 78
2019-08-22 01:00:00 23.1 2 Sudoeste 8 Sudeste 0 -- -- 75
2019-08-22 00:00:00 23.8 0 Calma 9 Sudeste 0 -- -- 72
2019-08-21 23:00:00 24.3 5 Este 11 Este 0 -- -- 72
2019-08-21 22:00:00 25.1 7 Sudeste 13 Sudeste 0 -- -- 66
2019-08-21 21:00:00 25.6 4 Sudeste 8 Sur 0 -- -- 61
2019-08-21 20:00:00 26.3 2 Norte 10 Oeste 0 -- -- 62
2019-08-21 19:00:00 27.1 2 Oeste 9 Sur 0 -- -- 57
2019-08-21 18:00:00 27.6 4 Sudoeste 8 Noroeste 0 -- -- 53
2019-08-21 17:00:00 28 7 Noroeste 14 Oeste 0 -- -- 51
2019-08-21 16:00:00 28.3 5 Oeste 19 Oeste 0 -- -- 51
2019-08-21 15:00:00 28.4 6 Sudoeste 18 Oeste 0 -- -- 52
2019-08-21 14:00:00 27 7 Oeste 14 Noroeste 0 -- -- 55
2019-08-21 13:00:00 25.4 5 Sudoeste 13 Sur 0 -- -- 61
2019-08-21 12:00:00 23.8 3 Nordeste 12 Noroeste 0 -- -- 67
2019-08-21 11:00:00 22.2 8 Oeste 13 Oeste 0 -- -- 74
2019-08-21 10:00:00 20.4 4 Noroeste 8 Oeste 0 -- -- 80
2019-08-21 09:00:00 18.8 3 Oeste 7 Sur 0 -- -- 87
2019-08-21 08:00:00 17.8 0 Calma 6 Sudeste 0 -- -- 94
2019-08-21 07:00:00 17.4 3 Sur 5 Sur 0 -- -- 94
2019-08-21 06:00:00 17.7 0 Calma 5 Sudoeste 0 -- -- 93
2019-08-21 05:00:00 18.1 2 Sur 6 Sudoeste 0 -- -- 92
2019-08-21 04:00:00 18 3 Sudoeste 5 Sudoeste 0 -- -- 93
2019-08-21 03:00:00 17.8 3 Sudoeste 5 Sudoeste 0 -- -- 92
2019-08-21 02:00:00 18.3 0 Calma 5 Sudoeste 0 -- -- 90
2019-08-21 01:00:00 19.2 2 Este 4 Sur 0 -- -- 86
2019-08-21 00:00:00 19.6 2 Nordeste 6 Este 0 -- -- 83
2019-08-20 23:00:00 20.3 5 Sudeste 9 Sudeste 0 -- -- 79
2019-08-20 22:00:00 20.6 4 Sur 9 Sur 0 -- -- 80
2019-08-20 21:00:00 21.2 4 Sur 10 Sudeste 0 -- -- 78
2019-08-20 20:00:00 22.2 7 Sur 14 Sudoeste 0 -- -- 73
2019-08-20 19:00:00 22.2 9 Sur 17 Sur 0 -- -- 73
2019-08-20 18:00:00 22.7 5 Oeste 15 Oeste 0 -- -- 73
2019-08-20 17:00:00 21.7 7 Oeste 13 Sudoeste 0 -- -- 82
2019-08-20 16:00:00 20.3 6 Sudoeste 13 Oeste 0.2 -- -- 86
2019-08-20 15:00:00 19.8 6 Sudoeste 14 Oeste 0.2 -- -- 88
2019-08-20 14:00:00 19.7 5 Sur 13 Sur 0 -- -- 90
2019-08-20 13:00:00 18.7 8 Sur 12 Sur 0.8 -- -- 94
2019-08-20 12:00:00 18.6 6 Sur 13 Sur 4.4 -- -- 94
2019-08-20 11:00:00 18.7 3 Sudeste 13 Oeste 2.8 -- -- 94
2019-08-20 10:00:00 18.4 6 Norte 17 Noroeste 14.8 -- -- 93
2019-08-20 09:00:00 18.7 10 Noroeste 17 Noroeste 0.4 -- -- 93
2019-08-20 08:00:00 18.3 7 Noroeste 27 Noroeste 0.4 -- -- 93
2019-08-20 07:00:00 19 19 Noroeste 27 Oeste 0.6 -- -- 88
2019-08-20 06:00:00 19.7 17 Noroeste 36 Noroeste 0 -- -- 81
2019-08-20 05:00:00 19.5 18 Noroeste 36 Noroeste 0 -- -- 86
2019-08-20 04:00:00 21.2 15 Noroeste 22 Noroeste 0 -- -- 76
2019-08-20 03:00:00 22.4 9 Oeste 15 Oeste 0 -- -- 69
2019-08-20 02:00:00 23 14 Noroeste 22 Noroeste 0 -- -- 68
2019-08-20 01:00:00 24.7 8 Sudeste 16 Sudeste 0 -- -- 73
2019-08-20 00:00:00 24.8 12 Sudeste 23 Sudeste 0 -- -- 72
2019-08-19 23:00:00 25 14 Sudeste 27 Sudeste 0 -- -- 72
2019-08-19 22:00:00 25.7 13 Sudeste 26 Sudeste 0 -- -- 70
2019-08-19 21:00:00 26.2 12 Sur 34 Sudeste 0 -- -- 67
2019-08-19 20:00:00 27 18 Sudeste 30 Sudeste 0 -- -- 63
2019-08-19 19:00:00 29.3 12 Sur 20 Sur 0 -- -- 54
2019-08-19 18:00:00 30 12 Nordeste 28 Nordeste 0 -- -- 47
2019-08-19 17:00:00 32.1 16 Nordeste 23 Nordeste 0 -- -- 42
2019-08-19 16:00:00 31.4 12 Nordeste 23 Nordeste 0 -- -- 43
2019-08-19 15:00:00 29.7 5 Este 16 Sur 0 -- -- 45
2019-08-19 14:00:00 27.7 6 Norte 13 Nordeste 0 -- -- 46
2019-08-19 13:00:00 26 7 Este 15 Sudeste 0 -- -- 50
2019-08-19 12:00:00 25.3 4 Sudeste 18 Sur 0 -- -- 51
2019-08-19 11:00:00 24.2 7 Sudoeste 20 Sur 0 -- -- 54
2019-08-19 10:00:00 22.6 7 Sudoeste 17 Sur 0 -- -- 58
2019-08-19 09:00:00 21.1 8 Sudoeste 17 Sudoeste 0 -- -- 62
2019-08-19 08:00:00 20 8 Sudoeste 17 Sur 0 -- -- 67
2019-08-19 07:00:00 20.2 9 Sur 21 Sur 0 -- -- 68
2019-08-19 06:00:00 20.7 8 Sudoeste 20 Sudoeste 0 -- -- 67
2019-08-19 05:00:00 21.4 10 Sudoeste 21 Sudoeste 0 -- -- 67
2019-08-19 04:00:00 22.6 13 Sudoeste 18 Sudoeste 0 -- -- 67
2019-08-19 03:00:00 23.9 10 Sur 20 Sudoeste 0 -- -- 64
2019-08-19 02:00:00 25.1 8 Sudeste 13 Sudeste 0 -- -- 74
2019-08-19 01:00:00 25.4 4 Este 36 Sur 0 -- -- 71
2019-08-19 00:00:00 25.8 16 Sudeste 34 Sudeste 0 -- -- 68
2019-08-18 23:00:00 26.2 14 Sudeste 29 Sudeste 0 -- -- 70
2019-08-18 22:00:00 26.9 13 Sudeste 32 Sudeste 0 -- -- 68
2019-08-18 21:00:00 28.1 21 Sudeste 39 Sudeste 0 -- -- 64
2019-08-18 20:00:00 29.9 19 Sudeste 45 Sudeste 0 -- -- 55
2019-08-18 19:00:00 31.6 15 Sudeste 38 Sudeste 0 -- -- 53
2019-08-18 18:00:00 33.4 19 Sudeste 35 Sudeste 0 -- -- 46
2019-08-18 17:00:00 35.3 15 Sudeste 29 Sudeste 0 -- -- 41
2019-08-18 16:00:00 36.7 10 Este 23 Nordeste 0 -- -- 39
2019-08-18 15:00:00 35.7 10 Este 22 Nordeste 0 -- -- 33
2019-08-18 14:00:00 33.6 9 Este 19 Nordeste 0 -- -- 46
2019-08-18 13:00:00 32.9 9 Nordeste 24 Nordeste 0 -- -- 51
2019-08-18 12:00:00 31.3 12 Nordeste 22 Nordeste 0 -- -- 54
2019-08-18 11:00:00 29.1 13 Nordeste 26 Nordeste 0 -- -- 61
2019-08-18 10:00:00 26.1 18 Nordeste 28 Nordeste 0 -- -- 69
2019-08-18 09:00:00 23.8 21 Nordeste 32 Nordeste 0 -- -- 75
2019-08-18 08:00:00 22.4 24 Nordeste 34 Nordeste 0 -- -- 78
2019-08-18 07:00:00 22 22 Nordeste 28 Nordeste 0 -- -- 79
2019-08-18 06:00:00 22.2 19 Nordeste 27 Nordeste 0 -- -- 78
2019-08-18 05:00:00 22.8 14 Este 26 Este 0 -- -- 76
2019-08-18 04:00:00 23.3 13 Este 21 Este 0 -- -- 74
2019-08-18 03:00:00 24 12 Este 24 Este 0 -- -- 70
2019-08-18 02:00:00 24.8 12 Este 28 Este 0 -- -- 66
2019-08-18 01:00:00 25.4 16 Este 26 Este 0 -- -- 60
2019-08-18 00:00:00 25.4 11 Este 30 Sudeste 0 -- -- 65
2019-08-17 23:00:00 25.9 10 Este 32 Sudeste 0 -- -- 61
2019-08-17 22:00:00 26.6 16 Sudeste 37 Sudeste 0 -- -- 61
2019-08-17 21:00:00 27.8 24 Sudeste 46 Sudeste 0 -- -- 59
2019-08-17 20:00:00 29.4 23 Sudeste 40 Sudeste 0 -- -- 57
2019-08-17 19:00:00 31.6 21 Sudeste 36 Sudeste 0 -- -- 52
2019-08-17 18:00:00 32.9 22 Sudeste 35 Sudeste 0 -- -- 47
2019-08-17 17:00:00 33.7 22 Sudeste 35 Sudeste 0 -- -- 45
2019-08-17 16:00:00 35.3 11 Este 25 Sur 0 -- -- 41
2019-08-17 15:00:00 34.4 10 Este 20 Sudeste 0 -- -- 42
2019-08-17 14:00:00 33.4 8 Este 23 Sur 0 -- -- 45
2019-08-17 13:00:00 31.8 10 Este 24 Sudeste 0 -- -- 51
2019-08-17 12:00:00 29.6 9 Sudeste 21 Este 0 -- -- 57
2019-08-17 11:00:00 28.3 4 Oeste 13 Norte 0 -- -- 60
2019-08-17 10:00:00 26.4 5 Este 15 Nordeste 0 -- -- 64
2019-08-17 09:00:00 23.7 6 Este 13 Este 0 -- -- 71
2019-08-17 08:00:00 22 4 Nordeste 14 Este 0 -- -- 77
2019-08-17 07:00:00 21.3 3 Nordeste 8 Sudeste 0 -- -- 79
2019-08-17 06:00:00 21.9 8 Nordeste 19 Nordeste 0 -- -- 77
2019-08-17 05:00:00 22.4 12 Nordeste 24 Nordeste 0 -- -- 77
2019-08-17 04:00:00 22.7 16 Nordeste 25 Este 0 -- -- 76
2019-08-17 03:00:00 23.3 18 Nordeste 25 Nordeste 0 -- -- 74
2019-08-17 02:00:00 23.7 14 Nordeste 22 Sudeste 0 -- -- 71
2019-08-17 01:00:00 25 8 Este 21 Sudeste 0 -- -- 65
2019-08-17 00:00:00 25.5 12 Sudeste 30 Sudeste 0 -- -- 63
2019-08-16 23:00:00 26.4 18 Sudeste 31 Sudeste 0 -- -- 61
2019-08-16 22:00:00 27.3 17 Sudeste 30 Sudeste 0 -- -- 58
2019-08-16 21:00:00 28.7 14 Sudeste 34 Sudeste 0 -- -- 51
2019-08-16 20:00:00 31 18 Sudeste 32 Sudeste 0 -- -- 46
2019-08-16 19:00:00 32.8 13 Sudeste 23 Sur 0 -- -- 42
2019-08-16 18:00:00 34.5 11 Este 19 Sur 0 -- -- 37
2019-08-16 17:00:00 34.5 5 Norte 20 Nordeste 0 -- -- 32
2019-08-16 16:00:00 33.2 9 Sudoeste 17 Sudoeste 0 -- -- 34
2019-08-16 15:00:00 32.1 4 Nordeste 18 Sudoeste 0 -- -- 33
2019-08-16 14:00:00 29.8 8 Sur 15 Noroeste 0 -- -- 34
2019-08-16 13:00:00 27.7 5 Sur 14 Sudoeste 0 -- -- 35
2019-08-16 12:00:00 25.8 7 Norte 18 Sudoeste 0 -- -- 39
2019-08-16 11:00:00 22.8 4 Noroeste 13 Noroeste 0 -- -- 45
2019-08-16 10:00:00 20.8 8 Noroeste 15 Noroeste 0 -- -- 51
2019-08-16 09:00:00 19.6 5 Noroeste 9 Noroeste 0 -- -- 58
2019-08-16 08:00:00 18 3 Noroeste 5 Noroeste 0 -- -- 63
2019-08-16 07:00:00 17.8 0 Calma 8 Noroeste 0 -- -- 63
2019-08-16 06:00:00 18.4 0 Calma 9 Noroeste 0 -- -- 61
2019-08-16 05:00:00 19.3 3 Oeste 8 Noroeste 0 -- -- 56
2019-08-16 04:00:00 20.8 0 Calma 8 Sudoeste 0 -- -- 48
2019-08-16 03:00:00 21.7 4 Oeste 10 Oeste 0 -- -- 46
2019-08-16 02:00:00 23.3 5 Sudoeste 14 Sur 0 -- -- 42
2019-08-16 01:00:00 24.9 8 Sudoeste 20 Sudoeste 0 -- -- 37
2019-08-16 00:00:00 25.8 8 Este 24 Sudoeste 0 -- -- 34
2019-08-15 23:00:00 27.1 12 Noroeste 27 Oeste 0 -- -- 34
2019-08-15 22:00:00 29.1 7 Oeste 12 Oeste 0 -- -- 30
2019-08-15 21:00:00 30.7 7 Oeste 21 Noroeste 0 -- -- 29
2019-08-15 20:00:00 32.5 17 Noroeste 30 Noroeste 0 -- -- 25
2019-08-15 19:00:00 33.4 24 Noroeste 33 Noroeste 0 -- -- 24
2019-08-15 18:00:00 34.6 12 Noroeste 33 Oeste 0 -- -- 31
2019-08-15 17:00:00 34.4 9 Oeste 22 Sudoeste 0 -- -- 34
2019-08-15 16:00:00 33.6 6 Oeste 23 Nordeste 0 -- -- 36
2019-08-15 15:00:00 32.3 9 Noroeste 29 Oeste 0 -- -- 39
2019-08-15 14:00:00 31.7 13 Noroeste 30 Oeste 0 -- -- 39
2019-08-15 13:00:00 30.6 16 Oeste 29 Oeste 0 -- -- 40
2019-08-15 12:00:00 28.6 9 Sudoeste 19 Oeste 0 -- -- 46
2019-08-15 11:00:00 25.8 9 Oeste 18 Oeste 0 -- -- 53
2019-08-15 10:00:00 24 4 Sudoeste 15 Sudoeste 0 -- -- 59
2019-08-15 09:00:00 22.3 7 Oeste 17 Sudoeste 0 -- -- 64
2019-08-15 08:00:00 21.3 4 Sudoeste 15 Sudoeste 0 -- -- 67
2019-08-15 07:00:00 20.6 5 Sur 10 Sudoeste 0 -- -- 66
2019-08-15 06:00:00 20.9 4 Sudoeste 7 Sudoeste 0 -- -- 73
2019-08-15 05:00:00 21.9 2 Este 10 Este 0 -- -- 74
2019-08-15 04:00:00 22.4 5 Este 12 Este 0 -- -- 72
2019-08-15 03:00:00 23.1 9 Este 19 Este 0 -- -- 67
2019-08-15 02:00:00 26.1 2 Oeste 11 Sudeste 0 -- -- 43
2019-08-15 01:00:00 26.6 4 Sudeste 13 Sudeste 0 -- -- 43
2019-08-15 00:00:00 26.9 10 Sudeste 18 Este 0 -- -- 47
2019-08-14 23:00:00 28 9 Sur 14 Sur 0 -- -- 33
2019-08-14 22:00:00 29.4 9 Sudoeste 15 Sudoeste 0 -- -- 31
2019-08-14 21:00:00 31.2 3 Sudoeste 28 Noroeste 0 -- -- 28
2019-08-14 20:00:00 33.3 17 Oeste 33 Oeste 0 -- -- 25
2019-08-14 19:00:00 34.4 17 Oeste 33 Oeste 0 -- -- 24
2019-08-14 18:00:00 34.4 18 Oeste 35 Oeste 0 -- -- 22
2019-08-14 17:00:00 33.8 22 Oeste 39 Oeste 0 -- -- 23
2019-08-14 16:00:00 33.7 13 Sudoeste 32 Oeste 0 -- -- 23
2019-08-14 15:00:00 31.6 8 Norte 30 Oeste 0 -- -- 25
2019-08-14 14:00:00 30.7 10 Oeste 25 Oeste 0 -- -- 27
2019-08-14 13:00:00 27.3 5 Sudoeste 13 Sur 0 -- -- 31
2019-08-14 12:00:00 25 6 Oeste 12 Oeste 0 -- -- 37
2019-08-14 11:00:00 22.9 4 Oeste 11 Oeste 0 -- -- 41
2019-08-14 10:00:00 20.5 3 Noroeste 6 Noroeste 0 -- -- 47
2019-08-14 09:00:00 18.4 4 Noroeste 5 Noroeste 0 -- -- 56
2019-08-14 08:00:00 16.9 3 Sudoeste 9 Sudoeste 0 -- -- 60
2019-08-14 07:00:00 16.4 3 Sudoeste 9 Sudoeste 0 -- -- 62
2019-08-14 06:00:00 16.9 8 Sudoeste 13 Sur 0 -- -- 62
2019-08-14 05:00:00 17.3 4 Oeste 20 Oeste 0 -- -- 62
2019-08-14 04:00:00 18.6 6 Noroeste 23 Oeste 0 -- -- 57
2019-08-14 03:00:00 19.2 10 Oeste 20 Oeste 0 -- -- 54
2019-08-14 02:00:00 20.2 5 Oeste 20 Sudoeste 0 -- -- 48
2019-08-14 01:00:00 21.1 7 Sudoeste 15 Oeste 0 -- -- 44
2019-08-14 00:00:00 22.4 7 Oeste 15 Sudoeste 0 -- -- 39
2019-08-13 23:00:00 23.2 5 Sur 15 Sudoeste 0 -- -- 36
2019-08-13 22:00:00 24.6 2 Nordeste 5 Noroeste 0 -- -- 28
2019-08-13 21:00:00 26.6 4 Noroeste 29 Oeste 0 -- -- 25
2019-08-13 20:00:00 28.7 13 Oeste 22 Oeste 0 -- -- 23
2019-08-13 19:00:00 30 13 Noroeste 23 Noroeste 0 -- -- 22
2019-08-13 18:00:00 29.7 9 Oeste 26 Noroeste 0 -- -- 27
2019-08-13 17:00:00 29.3 8 Noroeste 19 Noroeste 0 -- -- 31
2019-08-13 16:00:00 28.2 7 Noroeste 20 Oeste 0 -- -- 33
2019-08-13 15:00:00 26.7 9 Noroeste 27 Oeste 0 -- -- 37
2019-08-13 14:00:00 25.2 12 Oeste 25 Sudoeste 0 -- -- 38
2019-08-13 13:00:00 23.8 11 Sudoeste 23 Oeste 0 -- -- 41
2019-08-13 12:00:00 21.7 11 Oeste 22 Oeste 0 -- -- 47
2019-08-13 11:00:00 20.9 13 Oeste 22 Oeste 0 -- -- 49
2019-08-13 10:00:00 19.4 13 Oeste 18 Oeste 0 -- -- 53
2019-08-13 09:00:00 17.4 10 Oeste 22 Sudoeste 0 -- -- 60
2019-08-13 08:00:00 16.9 12 Sudoeste 21 Oeste 0 -- -- 61
2019-08-13 07:00:00 16.7 9 Sudoeste 18 Sudoeste 0 -- -- 63
2019-08-13 06:00:00 16.7 10 Oeste 23 Oeste 0 -- -- 63
2019-08-13 05:00:00 16.5 5 Sur 13 Sudoeste 0 -- -- 64
2019-08-13 04:00:00 16.6 4 Norte 22 Sudoeste 0 -- -- 62
2019-08-13 03:00:00 17.2 10 Sudoeste 28 Sudoeste 0 -- -- 60
2019-08-13 02:00:00 18.1 10 Sudoeste 30 Sudoeste 0 -- -- 57
2019-08-13 01:00:00 19 12 Sudoeste 27 Sudoeste 0 -- -- 54
2019-08-13 00:00:00 20.4 14 Sudoeste 30 Sudoeste 0 -- -- 47
2019-08-12 23:00:00 21.9 9 Sudoeste 22 Sudoeste 0 -- -- 42
2019-08-12 22:00:00 23.4 13 Oeste 27 Oeste 0 -- -- 38
2019-08-12 21:00:00 25.3 15 Oeste 31 Noroeste 0 -- -- 34
2019-08-12 20:00:00 27.8 14 Noroeste 36 Oeste 0 -- -- 27
2019-08-12 19:00:00 29.1 21 Noroeste 34 Oeste 0 -- -- 26
2019-08-12 18:00:00 30.3 18 Oeste 33 Oeste 0 -- -- 24
2019-08-12 17:00:00 30.7 19 Oeste 36 Oeste 0 -- -- 26
2019-08-12 16:00:00 30.7 17 Oeste 42 Oeste 0 -- -- 27
2019-08-12 15:00:00 29.9 23 Oeste 37 Oeste 0 -- -- 30
2019-08-12 14:00:00 28.7 12 Sudoeste 30 Oeste 0 -- -- 35
2019-08-12 13:00:00 26.9 9 Noroeste 28 Oeste 0 -- -- 40
2019-08-12 12:00:00 25 12 Sudoeste 28 Oeste 0 -- -- 46
2019-08-12 11:00:00 23.2 17 Oeste 27 Oeste 0 -- -- 50
2019-08-12 10:00:00 20 10 Oeste 26 Oeste 0 -- -- 60
2019-08-12 09:00:00 19.7 13 Oeste 26 Sudoeste 0 -- -- 61
2019-08-12 08:00:00 19.1 13 Sudoeste 28 Sudoeste 0 -- -- 63
2019-08-12 07:00:00 19.1 14 Sudoeste 23 Sudoeste 0 -- -- 63
2019-08-12 06:00:00 19.6 12 Sudoeste 26 Sudoeste 0 -- -- 62
2019-08-12 05:00:00 20.5 14 Sudoeste 35 Sudoeste 0 -- -- 60
2019-08-12 04:00:00 21.5 13 Sudoeste 30 Sudoeste 0 -- -- 56
2019-08-12 03:00:00 22.9 17 Sudoeste 30 Sudoeste 0 -- -- 51
2019-08-12 02:00:00 24.5 9 Sudoeste 18 Sur 0 -- -- 44
2019-08-12 01:00:00 25.6 8 Oeste 18 Oeste 0 -- -- 42
2019-08-12 00:00:00 26.5 13 Noroeste 25 Noroeste 0 -- -- 41
2019-08-11 23:00:00 27.9 14 Noroeste 28 Noroeste 0 -- -- 38
2019-08-11 22:00:00 29.7 6 Sudeste 12 Sudeste 0 -- -- 41
2019-08-11 21:00:00 30.8 4 Nordeste 8 Noroeste 0 -- -- 34
2019-08-11 20:00:00 31.7 5 Noroeste 17 Noroeste 0 -- -- 33
2019-08-11 19:00:00 32.4 10 Nordeste 20 Nordeste 0 -- -- 35
2019-08-11 18:00:00 32.3 11 Noroeste 28 Noroeste 0 -- -- 33
2019-08-11 17:00:00 32.6 15 Noroeste 27 Norte 0 -- -- 39
2019-08-11 16:00:00 32.2 9 Noroeste 31 Noroeste 0 -- -- 45
2019-08-11 15:00:00 31.6 11 Noroeste 25 Noroeste 0 -- -- 43
2019-08-11 14:00:00 30.7 9 Noroeste 20 Oeste 0 -- -- 46
2019-08-11 13:00:00 28.4 4 Sudoeste 14 Sudoeste 0 -- -- 54
2019-08-11 12:00:00 26.6 5 Sur 18 Oeste 0 -- -- 58
2019-08-11 11:00:00 25.2 15 Oeste 23 Oeste 0 -- -- 60
2019-08-11 10:00:00 24.7 7 Oeste 14 Sudoeste 0 -- -- 66
2019-08-11 09:00:00 25 4 Sur 15 Este 0 -- -- 70
2019-08-11 08:00:00 24.2 9 Sudeste 19 Sudeste 0 -- -- 74
2019-08-11 07:00:00 23.9 12 Sudeste 18 Sudeste 0 -- -- 75
2019-08-11 06:00:00 24.3 10 Sudeste 19 Sudeste 0 -- -- 72
2019-08-11 05:00:00 24.4 9 Este 18 Sudeste 0 -- -- 76
2019-08-11 04:00:00 24.8 11 Sudeste 21 Este 0 -- -- 77
2019-08-11 03:00:00 25.2 10 Este 19 Sudeste 0 -- -- 75
2019-08-11 02:00:00 25.5 7 Este 21 Este 0 -- -- 74
2019-08-11 01:00:00 26 10 Sudeste 26 Sudeste 0 -- -- 72
2019-08-11 00:00:00 26.9 16 Sudeste 30 Sudeste 0 -- -- 66
2019-08-10 23:00:00 28.3 13 Sudeste 27 Sudeste 0 -- -- 59
2019-08-10 22:00:00 29.6 15 Sudeste 24 Sudeste 0 -- -- 56
2019-08-10 21:00:00 31.9 3 Sudoeste 11 Norte 0 -- -- 37
2019-08-10 20:00:00 32.2 8 Norte 19 Noroeste 0 -- -- 35
2019-08-10 19:00:00 33 13 Norte 28 Nordeste 0 -- -- 33
2019-08-10 18:00:00 34.7 17 Nordeste 30 Nordeste 0 -- -- 32
2019-08-10 17:00:00 35.5 13 Nordeste 25 Nordeste 0 -- -- 31
2019-08-10 16:00:00 35.3 15 Nordeste 26 Nordeste 0 -- -- 31
2019-08-10 15:00:00 33.7 10 Noroeste 23 Noroeste 0 -- -- 31
2019-08-10 14:00:00 33.2 8 Oeste 25 Sudoeste 0 -- -- 33
2019-08-10 13:00:00 31.7 9 Sur 18 Oeste 0 -- -- 34
2019-08-10 12:00:00 30.8 8 Oeste 19 Sudoeste 0 -- -- 34
2019-08-10 11:00:00 28.5 7 Sudoeste 16 Oeste 0 -- -- 39
2019-08-10 10:00:00 26.7 6 Oeste 15 Oeste 0 -- -- 45
2019-08-10 09:00:00 25 5 Oeste 15 Oeste 0 -- -- 50
2019-08-10 08:00:00 23.3 10 Sudoeste 23 Sudoeste 0 -- -- 54
2019-08-10 07:00:00 23.3 14 Sudoeste 20 Sudoeste 0 -- -- 54
2019-08-10 06:00:00 24.3 9 Oeste 20 Sudoeste 0 -- -- 52
2019-08-10 05:00:00 24.6 6 Sudoeste 23 Sudoeste 0 -- -- 51
2019-08-10 04:00:00 25.5 10 Sudoeste 26 Sudoeste 0 -- -- 49
2019-08-10 03:00:00 26.4 11 Sudoeste 23 Sudoeste 0 -- -- 47
2019-08-10 02:00:00 26.8 13 Sudoeste 24 Oeste 0 -- -- 47
2019-08-10 01:00:00 26.7 12 Oeste 55 Noroeste 0 -- -- 49
2019-08-10 00:00:00 29.3 35 Noroeste 62 Noroeste 0 -- -- 51
2019-08-09 23:00:00 32.6 10 Oeste 24 Noroeste 0 -- -- 37
2019-08-09 22:00:00 33.7 14 Sudeste 23 Sudeste 0 -- -- 34
2019-08-09 21:00:00 35.2 10 Sudeste 25 Sudeste 0 -- -- 36
2019-08-09 20:00:00 37.7 10 Nordeste 24 Nordeste 0 -- -- 27
2019-08-09 19:00:00 38.6 15 Nordeste 28 Nordeste 0 -- -- 27
2019-08-09 18:00:00 39.2 22 Nordeste 29 Nordeste 0 -- -- 26
2019-08-09 17:00:00 40 19 Nordeste 31 Norte 0 -- -- 24
2019-08-09 16:00:00 40.1 13 Oeste 32 Oeste 0 -- -- 21
2019-08-09 15:00:00 39 10 Oeste 22 Oeste 0 -- -- 23
2019-08-09 14:00:00 37.9 10 Sudoeste 22 Sur 0 -- -- 26
2019-08-09 13:00:00 36.5 8 Nordeste 18 Nordeste 0 -- -- 35
2019-08-09 12:00:00 33.5 4 Oeste 9 Noroeste 0 -- -- 40
2019-08-09 11:00:00 30.3 4 Noroeste 7 Noroeste 0 -- -- 49
2019-08-09 10:00:00 26.7 4 Noroeste 6 Noroeste 0 -- -- 57
2019-08-09 09:00:00 24.6 3 Oeste 4 Oeste 0 -- -- 63
2019-08-09 08:00:00 22.7 3 Oeste 5 Sudoeste 0 -- -- 67
2019-08-09 07:00:00 22.7 3 Sur 9 Sudoeste 0 -- -- 66
2019-08-09 06:00:00 23.7 0 Calma 5 Nordeste 0 -- -- 62
2019-08-09 05:00:00 24.5 3 Nordeste 10 Este 0 -- -- 58
2019-08-09 04:00:00 26.1 6 Este 18 Este 0 -- -- 53
2019-08-09 03:00:00 26.6 10 Este 16 Nordeste 0 -- -- 53
2019-08-09 02:00:00 27.7 12 Sudeste 32 Sudeste 0 -- -- 45
2019-08-09 01:00:00 28.5 15 Sudeste 28 Sudeste 0 -- -- 44
2019-08-09 00:00:00 29 13 Sudeste 31 Sudeste 0 -- -- 44
2019-08-08 23:00:00 30.1 13 Sudeste 24 Sudeste 0 -- -- 46
2019-08-08 22:00:00 31.2 11 Sudeste 28 Sudeste 0 -- -- 43
2019-08-08 21:00:00 32.9 14 Sudeste 30 Sudeste 0 -- -- 41
2019-08-08 20:00:00 35.3 13 Nordeste 25 Nordeste 0 -- -- 33
2019-08-08 19:00:00 36 11 Este 21 Sudeste 0 -- -- 30
2019-08-08 18:00:00 37.2 7 Norte 19 Noroeste 0 -- -- 28
2019-08-08 17:00:00 37.2 12 Noroeste 21 Nordeste 0 -- -- 27
2019-08-08 16:00:00 36.6 8 Noroeste 31 Oeste 0 -- -- 28
2019-08-08 15:00:00 35.5 9 Oeste 21 Sudoeste 0 -- -- 28
2019-08-08 14:00:00 34 6 Oeste 17 Oeste 0 -- -- 33
2019-08-08 13:00:00 32.3 9 Norte 24 Noroeste 0 -- -- 36
2019-08-08 12:00:00 30.6 5 Sudoeste 12 Sur 0 -- -- 41
2019-08-08 11:00:00 28.7 4 Sudoeste 10 Nordeste 0 -- -- 45
2019-08-08 10:00:00 27.1 3 Sudeste 7 Sur 0 -- -- 50
2019-08-08 09:00:00 24.6 2 Noroeste 7 Noroeste 0 -- -- 57
2019-08-08 08:00:00 23.1 3 Noroeste 14 Sur 0 -- -- 69
2019-08-08 07:00:00 22.5 6 Sudoeste 12 Sudoeste 0 -- -- 78
2019-08-08 06:00:00 22.6 0 Calma 4 Sur 0 -- -- 79
2019-08-08 05:00:00 23.3 2 Este 5 Sur 0 -- -- 75
2019-08-08 04:00:00 23.6 2 Sudeste 9 Oeste 0 -- -- 75
2019-08-08 03:00:00 24.2 5 Oeste 8 Oeste 0 -- -- 73
2019-08-08 02:00:00 25.9 5 Sur 13 Sudeste 0 -- -- 68
2019-08-08 01:00:00 27 8 Sudeste 22 Sudeste 0 -- -- 72
2019-08-08 00:00:00 27.5 10 Sudeste 18 Sudeste 0 -- -- 69
2019-08-07 23:00:00 28.2 10 Sudeste 21 Sudeste 0 -- -- 65
2019-08-07 22:00:00 28.7 11 Sudeste 17 Este 0 -- -- 62
2019-08-07 21:00:00 30.1 9 Este 15 Sudeste 0 -- -- 49
2019-08-07 20:00:00 31.7 9 Noroeste 12 Oeste 0 -- -- 39
2019-08-07 19:00:00 31.7 2 Noroeste 10 Norte 0 -- -- 40
2019-08-07 18:00:00 31.6 5 Oeste 13 Sur 0 -- -- 42
2019-08-07 17:00:00 31.8 6 Sudoeste 22 Sudoeste 0 -- -- 41
2019-08-07 16:00:00 31.2 7 Sudoeste 17 Sur 0 -- -- 44
2019-08-07 15:00:00 31.4 8 Sudoeste 20 Sur 0 -- -- 44
2019-08-07 14:00:00 31 6 Sudoeste 21 Sudoeste 0 -- -- 45
2019-08-07 13:00:00 30.9 10 Oeste 21 Oeste 0 -- -- 46
2019-08-07 12:00:00 28.9 9 Sur 19 Sudoeste 0 -- -- 55
2019-08-07 11:00:00 27.5 8 Sur 19 Sudoeste 0 -- -- 58
2019-08-07 10:00:00 25.8 9 Sur 17 Sur 0 -- -- 63
2019-08-07 09:00:00 23.9 6 Sur 15 Sur 0 -- -- 67
2019-08-07 08:00:00 23.4 7 Sudoeste 15 Sudeste 0 -- -- 69
2019-08-07 07:00:00 23.6 9 Sur 23 Sudeste 0 -- -- 70
2019-08-07 06:00:00 25 14 Sudeste 22 Sudeste 0 -- -- 80
2019-08-07 05:00:00 25 5 Sudeste 11 Este 0 -- -- 78
2019-08-07 04:00:00 25.1 8 Sudeste 22 Este 0 -- -- 78
2019-08-07 03:00:00 25.3 18 Sudeste 28 Este 0 -- -- 75
2019-08-07 02:00:00 26 14 Este 32 Sudeste 0 -- -- 72
2019-08-07 01:00:00 26.6 17 Sudeste 32 Sudeste 0 -- -- 69
2019-08-07 00:00:00 27.3 15 Sudeste 29 Sudeste 0 -- -- 68
2019-08-06 23:00:00 29.3 17 Sudeste 30 Sudeste 0 -- -- 60
2019-08-06 22:00:00 30.3 16 Sudeste 26 Sudeste 0 -- -- 57
2019-08-06 21:00:00 31.4 13 Sudeste 33 Sudeste 0 -- -- 53
2019-08-06 20:00:00 33.2 15 Sudeste 30 Sudeste 0 -- -- 47
2019-08-06 19:00:00 37.1 9 Nordeste 19 Nordeste 0 -- -- 32
2019-08-06 18:00:00 38 9 Nordeste 23 Nordeste 0 -- -- 30
2019-08-06 17:00:00 37.4 8 Norte 17 Nordeste 0 -- -- 28
2019-08-06 16:00:00 36.6 8 Sudeste 18 Sur 0 -- -- 30
2019-08-06 15:00:00 35.2 8 Este 21 Este 0 -- -- 40
2019-08-06 14:00:00 33.6 10 Este 21 Este 0 -- -- 44
2019-08-06 13:00:00 31.8 9 Sudeste 21 Este 0 -- -- 50
2019-08-06 12:00:00 29.5 6 Sudoeste 17 Sur 0 -- -- 59
2019-08-06 11:00:00 27.6 10 Sur 18 Sur 0 -- -- 65
2019-08-06 10:00:00 26.6 4 Sur 9 Oeste 0 -- -- 63
2019-08-06 09:00:00 24.4 2 Noroeste 5 Oeste 0 -- -- 60
2019-08-06 08:00:00 23.8 5 Este 11 Este 0 -- -- 59
2019-08-06 07:00:00 23.6 7 Este 14 Este 0 -- -- 67
2019-08-06 06:00:00 23.5 8 Este 15 Este 0 -- -- 65
2019-08-06 05:00:00 24.3 8 Este 21 Este 0 -- -- 68
2019-08-06 04:00:00 24.7 11 Este 21 Este 0 -- -- 66
2019-08-06 03:00:00 25.4 11 Sudeste 26 Sur 0 -- -- 58
2019-08-06 02:00:00 26 8 Este 25 Este 0 -- -- 50
2019-08-06 01:00:00 26.8 17 Sudeste 29 Sudeste 0 -- -- 43
2019-08-06 00:00:00 27.2 16 Sudeste 28 Este 0 -- -- 42
2019-08-05 23:00:00 27.8 13 Sudeste 32 Sudeste 0 -- -- 42
2019-08-05 22:00:00 29.3 14 Sudeste 31 Sudeste 0 -- -- 42
2019-08-05 21:00:00 31.7 21 Sudeste 36 Sudeste 0 -- -- 38
2019-08-05 20:00:00 33.1 15 Sudeste 34 Sur 0 -- -- 35
2019-08-05 19:00:00 33.6 23 Sudeste 37 Sudeste 0 -- -- 36
2019-08-05 18:00:00 35 16 Sudeste 34 Sur 0 -- -- 34
2019-08-05 17:00:00 35.4 20 Sur 34 Sur 0 -- -- 32
2019-08-05 16:00:00 35.1 17 Sudeste 26 Sudeste 0 -- -- 39
2019-08-05 15:00:00 34.7 7 Sudeste 21 Sudoeste 0 -- -- 38
2019-08-05 14:00:00 32.8 8 Sudoeste 19 Sur 0 -- -- 43
2019-08-05 13:00:00 31.2 8 Sur 17 Este 0 -- -- 46
2019-08-05 12:00:00 29.3 9 Sur 17 Sudeste 0 -- -- 52
2019-08-05 11:00:00 27 5 Sur 14 Sur 0 -- -- 59
2019-08-05 10:00:00 25.4 5 Sur 13 Sudeste 0 -- -- 63
2019-08-05 09:00:00 24 5 Sudeste 10 Sudeste 0 -- -- 63
2019-08-05 08:00:00 22.3 2 Sur 4 Este 0 -- -- 65
2019-08-05 07:00:00 22.7 5 Este 10 Nordeste 0 -- -- 59
2019-08-05 06:00:00 22.9 2 Noroeste 8 Este 0 -- -- 60
2019-08-05 05:00:00 23.6 5 Este 18 Este 0 -- -- 58
2019-08-05 04:00:00 24.2 8 Este 14 Nordeste 0 -- -- 57
2019-08-05 03:00:00 26 6 Este 17 Sudeste 0 -- -- 45
2019-08-05 02:00:00 26.6 9 Sudeste 25 Sudeste 0 -- -- 41
2019-08-05 01:00:00 26.3 12 Sudeste 20 Este 0 -- -- 44
2019-08-05 00:00:00 26.6 13 Este 27 Sudeste 0 -- -- 50
2019-08-04 23:00:00 27.1 9 Sudeste 34 Sudeste 0 -- -- 53
2019-08-04 22:00:00 28.3 12 Sudeste 29 Sudeste 0 -- -- 52
2019-08-04 21:00:00 30 19 Sudeste 41 Sudeste 0 -- -- 47
2019-08-04 20:00:00 31.6 23 Sudeste 41 Sudeste 0 -- -- 46
2019-08-04 19:00:00 32.7 21 Sudeste 42 Sudeste 0 -- -- 43
2019-08-04 18:00:00 33.7 21 Sudeste 38 Sudeste 0 -- -- 42
2019-08-04 17:00:00 34.8 20 Sudeste 34 Sudeste 0 -- -- 39
2019-08-04 16:00:00 35.8 12 Sudeste 27 Este 0 -- -- 37
2019-08-04 15:00:00 35.4 10 Este 20 Sudeste 0 -- -- 39
2019-08-04 14:00:00 33.8 10 Este 18 Sudeste 0 -- -- 43
2019-08-04 13:00:00 31.5 9 Sudeste 14 Sudeste 0 -- -- 47
2019-08-04 12:00:00 29.7 7 Sudeste 15 Este 0 -- -- 51
2019-08-04 11:00:00 28 7 Sur 13 Sur 0 -- -- 54
2019-08-04 10:00:00 26.2 2 Sur 6 Oeste 0 -- -- 57
2019-08-04 09:00:00 23.7 3 Noroeste 8 Nordeste 0 -- -- 62
2019-08-04 08:00:00 22.1 2 Nordeste 8 Sudoeste 0 -- -- 65
2019-08-04 07:00:00 21.7 6 Oeste 17 Nordeste 0 -- -- 66
2019-08-04 06:00:00 22.4 12 Este 23 Nordeste 0 -- -- 63
2019-08-04 05:00:00 22.7 20 Nordeste 27 Nordeste 0 -- -- 62
2019-08-04 04:00:00 23.2 17 Nordeste 27 Nordeste 0 -- -- 60
2019-08-04 03:00:00 25.1 9 Este 25 Sudeste 0 -- -- 54
2019-08-04 02:00:00 25.9 15 Sudeste 25 Sudeste 0 -- -- 49
2019-08-04 01:00:00 26.3 13 Este 25 Sudeste 0 -- -- 46
2019-08-04 00:00:00 26 12 Este 24 Sudeste 0 -- -- 49
2019-08-03 23:00:00 26.5 13 Sudeste 31 Sudeste 0 -- -- 50
2019-08-03 22:00:00 27.2 18 Sudeste 39 Sudeste 0 -- -- 51
2019-08-03 21:00:00 28.9 22 Sudeste 39 Sudeste 0 -- -- 48
2019-08-03 20:00:00 31.1 17 Sudeste 41 Sudeste 0 -- -- 45
2019-08-03 19:00:00 32.5 21 Sudeste 42 Sudeste 0 -- -- 43
2019-08-03 18:00:00 33.5 23 Sudeste 40 Sur 0 -- -- 39
2019-08-03 17:00:00 34.4 21 Sudeste 39 Sur 0 -- -- 35
2019-08-03 16:00:00 35.3 17 Sudeste 32 Sudeste 0 -- -- 32
2019-08-03 15:00:00 35.3 10 Este 24 Sudeste 0 -- -- 31
2019-08-03 14:00:00 33.6 7 Este 21 Nordeste 0 -- -- 34
2019-08-03 13:00:00 31.3 5 Sudeste 16 Este 0 -- -- 40
2019-08-03 12:00:00 29.8 5 Nordeste 15 Nordeste 0 -- -- 45
2019-08-03 11:00:00 27.6 4 Sudeste 14 Sur 0 -- -- 51
2019-08-03 10:00:00 25.6 4 Este 8 Sur 0 -- -- 54
2019-08-03 09:00:00 22.2 3 Sudoeste 5 Sudoeste 0 -- -- 63
2019-08-03 08:00:00 20.6 0 Calma 6 Nordeste 0 -- -- 67
2019-08-03 07:00:00 21.1 3 Este 12 Este 0 -- -- 63
2019-08-03 06:00:00 21.4 5 Este 16 Este 0 -- -- 63
2019-08-03 05:00:00 21.8 9 Este 21 Nordeste 0 -- -- 63
2019-08-03 04:00:00 22.1 15 Nordeste 21 Este 0 -- -- 62
2019-08-03 03:00:00 22.9 12 Nordeste 19 Sudeste 0 -- -- 59
2019-08-03 02:00:00 24.8 9 Este 21 Este 0 -- -- 48
2019-08-03 01:00:00 24.9 8 Este 26 Este 0 -- -- 50
2019-08-03 00:00:00 25.9 15 Sudeste 26 Sur 0 -- -- 51
2019-08-02 23:00:00 27 16 Sudeste 28 Sudeste 0 -- -- 46
2019-08-02 22:00:00 28.3 18 Sudeste 29 Sudeste 0 -- -- 43
2019-08-02 21:00:00 29.6 13 Sudeste 31 Sudeste 0 -- -- 40
2019-08-02 20:00:00 31.4 15 Sudeste 36 Sudeste 0 -- -- 36
2019-08-02 19:00:00 33.7 19 Sudeste 31 Sudeste 0 -- -- 33
2019-08-02 18:00:00 36.1 7 Nordeste 14 Sur 0 -- -- 30
2019-08-02 17:00:00 35.2 7 Oeste 18 Norte 0 -- -- 31
2019-08-02 16:00:00 34.3 8 Sur 19 Oeste 0 -- -- 33
2019-08-02 15:00:00 33.1 7 Oeste 23 Oeste 0 -- -- 33
2019-08-02 14:00:00 31.5 4 Nordeste 13 Oeste 0 -- -- 39
2019-08-02 13:00:00 29.6 6 Oeste 16 Sudoeste 0 -- -- 44
2019-08-02 12:00:00 27.8 5 Sur 14 Noroeste 0 -- -- 49
2019-08-02 11:00:00 25.6 6 Sudoeste 13 Noroeste 0 -- -- 56
2019-08-02 10:00:00 23.6 5 Oeste 9 Oeste 0 -- -- 64
2019-08-02 09:00:00 22.1 3 Sur 8 Sudeste 0 -- -- 68
2019-08-02 08:00:00 20.4 2 Sur 4 Sur 0 -- -- 70
2019-08-02 07:00:00 19.2 0 Calma 6 Oeste 0 -- -- 74
2019-08-02 06:00:00 19.8 2 Noroeste 8 Oeste 0 -- -- 70
2019-08-02 05:00:00 21.6 0 Calma 5 Sur 0 -- -- 70
2019-08-02 04:00:00 21.9 2 Sudeste 8 Sudeste 0 -- -- 64
2019-08-02 03:00:00 23 2 Este 11 Sudeste 0 -- -- 62
2019-08-02 02:00:00 24 6 Este 12 Este 0 -- -- 57
2019-08-02 01:00:00 24.7 9 Sudeste 17 Sudeste 0 -- -- 51
2019-08-02 00:00:00 26 9 Sudeste 20 Sudeste 0 -- -- 42
2019-08-01 23:00:00 26.6 13 Sudeste 27 Sudeste 0 -- -- 39
2019-08-01 22:00:00 27.8 14 Sudeste 24 Sudeste 0 -- -- 35
2019-08-01 21:00:00 29.3 11 Sudeste 26 Este 0 -- -- 35
2019-08-01 20:00:00 31.3 17 Sudeste 31 Sudeste 0 -- -- 33
2019-08-01 19:00:00 32.4 18 Sudeste 34 Sudeste 0 -- -- 31
2019-08-01 18:00:00 33.7 12 Sudeste 26 Sudeste 0 -- -- 29
2019-08-01 17:00:00 33.6 10 Sudeste 21 Sudeste 0 -- -- 30
2019-08-01 16:00:00 33.6 11 Sudeste 22 Sur 0 -- -- 31
2019-08-01 15:00:00 32.5 9 Sudeste 25 Este 0 -- -- 34
2019-08-01 14:00:00 32 10 Este 20 Este 0 -- -- 36
2019-08-01 13:00:00 30.2 7 Sudeste 21 Este 0 -- -- 40
2019-08-01 12:00:00 29.4 11 Este 19 Nordeste 0 -- -- 41
2019-08-01 11:00:00 27 10 Este 22 Sudeste 0 -- -- 49
2019-08-01 10:00:00 24.6 8 Sudeste 13 Sudeste 0 -- -- 63
2019-08-01 09:00:00 22.7 3 Sur 6 Sur 0 -- -- 73
2019-08-01 08:00:00 20.5 0 Calma 6 Oeste 0 -- -- 80
2019-08-01 07:00:00 20.4 2 Nordeste 11 Este 0 -- -- 80
2019-08-01 06:00:00 21 12 Este 17 Este 0 -- -- 78
2019-08-01 05:00:00 21.3 7 Nordeste 17 Este 0 -- -- 77
2019-08-01 04:00:00 22.1 6 Nordeste 13 Este 0 -- -- 73
2019-08-01 03:00:00 22.5 7 Este 15 Este 0 -- -- 72
2019-08-01 02:00:00 22.9 9 Este 21 Este 0 -- -- 71
2019-08-01 01:00:00 23.5 13 Sudeste 28 Sudeste 0 -- -- 70
2019-08-01 00:00:00 23.8 12 Sudeste 20 Sudeste 0 -- -- 70
2019-07-31 23:00:00 24.3 13 Sudeste 27 Sudeste 0 -- -- 68
2019-07-31 22:00:00 25.1 13 Sur 26 Sudeste 0 -- -- 65
2019-07-31 21:00:00 25.9 14 Sudeste 37 Sur 0 -- -- 63
2019-07-31 20:00:00 27.8 19 Sudeste 33 Sudeste 0 -- -- 55
2019-07-31 19:00:00 29.2 18 Sudeste 36 Sudeste 0 -- -- 49
2019-07-31 18:00:00 30.3 15 Sudeste 35 Sudeste 0 -- -- 43
2019-07-31 17:00:00 30.7 17 Sur 32 Sur 0 -- -- 42
2019-07-31 16:00:00 31.1 8 Este 21 Nordeste 0 -- -- 38
2019-07-31 15:00:00 29.3 7 Este 21 Sudoeste 0 -- -- 39
2019-07-31 14:00:00 27.9 4 Norte 14 Sudeste 0 -- -- 38
2019-07-31 13:00:00 25.1 7 Sudeste 23 Sudeste 0 -- -- 40
2019-07-31 12:00:00 23.4 4 Noroeste 15 Nordeste 0 -- -- 47
2019-07-31 11:00:00 22 5 Norte 14 Nordeste 0 -- -- 49
2019-07-31 10:00:00 20.7 5 Nordeste 12 Nordeste 0 -- -- 52
2019-07-31 09:00:00 19 6 Oeste 14 Sudoeste 0 -- -- 56
2019-07-31 08:00:00 18 6 Sudoeste 10 Sur 0 -- -- 61
2019-07-31 07:00:00 17.4 5 Sudoeste 15 Sudoeste 0 -- -- 62
2019-07-31 06:00:00 18 8 Sudoeste 17 Sudoeste 0 -- -- 59
2019-07-31 05:00:00 18.4 6 Sudoeste 20 Sudoeste 0 -- -- 56
2019-07-31 04:00:00 19.1 9 Sudoeste 22 Sudoeste 0 -- -- 52
2019-07-31 03:00:00 19.2 9 Sudoeste 18 Oeste 0 -- -- 52
2019-07-31 02:00:00 20 7 Sudoeste 17 Sudoeste 0 -- -- 51
2019-07-31 01:00:00 21.5 6 Sudoeste 17 Sudoeste 0 -- -- 46
2019-07-31 00:00:00 23.5 6 Noroeste 20 Sudoeste 0 -- -- 41
2019-07-30 23:00:00 24.7 9 Noroeste 17 Oeste 0 -- -- 35
2019-07-30 22:00:00 26.4 5 Oeste 21 Noroeste 0 -- -- 32
2019-07-30 21:00:00 27.8 16 Noroeste 34 Oeste 0 -- -- 31
2019-07-30 20:00:00 29.7 23 Noroeste 31 Noroeste 0 -- -- 29
2019-07-30 19:00:00 31.8 13 Noroeste 21 Oeste 0 -- -- 27
2019-07-30 18:00:00 32.7 8 Oeste 23 Noroeste 0 -- -- 27
2019-07-30 17:00:00 32 7 Este 31 Oeste 0 -- -- 29
2019-07-30 16:00:00 31.9 8 Oeste 23 Noroeste 0 -- -- 30
2019-07-30 15:00:00 30 8 Noroeste 30 Noroeste 0 -- -- 34
2019-07-30 14:00:00 29.3 11 Norte 28 Sudoeste 0 -- -- 37
2019-07-30 13:00:00 28.4 14 Oeste 29 Sudoeste 0 -- -- 38
2019-07-30 12:00:00 26 13 Sudoeste 23 Sudoeste 0 -- -- 43
2019-07-30 11:00:00 23.9 12 Oeste 23 Sudoeste 0 -- -- 49
2019-07-30 10:00:00 22.1 12 Sudoeste 24 Sudoeste 0 -- -- 55
2019-07-30 09:00:00 20.1 9 Sur 22 Sudoeste 0 -- -- 61
2019-07-30 08:00:00 18.9 10 Sur 24 Sudoeste 0 -- -- 66
2019-07-30 07:00:00 19.1 12 Sudoeste 31 Sudoeste 0 -- -- 66
2019-07-30 06:00:00 19.7 19 Sudoeste 33 Sudoeste 0 -- -- 64
2019-07-30 05:00:00 20.6 10 Sudoeste 24 Sudoeste 0 -- -- 63
2019-07-30 04:00:00 22.3 10 Noroeste 22 Noroeste 0 -- -- 61
2019-07-30 03:00:00 24.6 4 Nordeste 14 Noroeste 0 -- -- 57
2019-07-30 02:00:00 26.7 10 Sudeste 22 Sudeste 0 -- -- 48
2019-07-30 01:00:00 26.7 9 Sudeste 27 Sudeste 0 -- -- 50
2019-07-30 00:00:00 27.1 14 Sudeste 30 Sudeste 0 -- -- 52
2019-07-29 23:00:00 27.7 12 Sur 30 Sudeste 0 -- -- 48
2019-07-29 22:00:00 28.8 14 Sudeste 27 Sudeste 0 -- -- 47
2019-07-29 21:00:00 31.1 13 Sudeste 26 Sudeste 0 -- -- 42
2019-07-29 20:00:00 34 9 Nordeste 18 Nordeste 0 -- -- 24
2019-07-29 19:00:00 34.8 11 Nordeste 21 Nordeste 0 -- -- 24
2019-07-29 18:00:00 35.5 12 Nordeste 21 Nordeste 0 -- -- 23
2019-07-29 17:00:00 34.8 14 Nordeste 28 Nordeste 0 -- -- 25
2019-07-29 16:00:00 34.2 13 Norte 19 Norte 0 -- -- 27
2019-07-29 15:00:00 32.9 9 Sudoeste 19 Oeste 0 -- -- 28
2019-07-29 14:00:00 31 8 Noroeste 14 Noroeste 0 -- -- 29
2019-07-29 13:00:00 29.5 4 Noroeste 9 Oeste 0 -- -- 33
2019-07-29 12:00:00 27.2 4 Sudoeste 10 Oeste 0 -- -- 38
2019-07-29 11:00:00 23.9 4 Sudoeste 8 Sur 0 -- -- 48
2019-07-29 10:00:00 21.3 3 Noroeste 8 Noroeste 0 -- -- 56
2019-07-29 09:00:00 18.6 3 Noroeste 6 Oeste 0 -- -- 67
2019-07-29 08:00:00 16.1 2 Oeste 5 Oeste 0 -- -- 76
2019-07-29 07:00:00 15.5 3 Oeste 10 Noroeste 0 -- -- 76
2019-07-29 06:00:00 16.9 4 Oeste 5 Noroeste 0 -- -- 65
2019-07-29 05:00:00 17.9 0 Calma 6 Sudoeste 0 -- -- 61
2019-07-29 04:00:00 19.9 0 Calma 5 Sudoeste 0 -- -- 53
2019-07-29 03:00:00 21.3 0 Calma 8 Sudoeste 0 -- -- 49
2019-07-29 02:00:00 22.1 3 Oeste 10 Norte 0 -- -- 45
2019-07-29 01:00:00 23.1 3 Oeste 12 Sudoeste 0 -- -- 43
2019-07-29 00:00:00 23.5 4 Oeste 10 Sudoeste 0 -- -- 41
2019-07-28 23:00:00 24.6 7 Sudoeste 10 Sur 0 -- -- 37
2019-07-28 22:00:00 25.5 0 Calma 12 Noroeste 0 -- -- 34
2019-07-28 21:00:00 27.6 9 Noroeste 26 Noroeste 0 -- -- 29
2019-07-28 20:00:00 29.3 15 Noroeste 41 Oeste 0 -- -- 30
2019-07-28 19:00:00 30.4 18 Oeste 36 Oeste 0 -- -- 28
2019-07-28 18:00:00 30.8 17 Oeste 41 Oeste 0 -- -- 28
2019-07-28 17:00:00 30.8 17 Oeste 37 Oeste 0 -- -- 28
2019-07-28 16:00:00 29.8 13 Oeste 29 Noroeste 0 -- -- 32
2019-07-28 15:00:00 28.4 16 Noroeste 32 Oeste 0 -- -- 34
2019-07-28 14:00:00 28 18 Oeste 35 Oeste 0 -- -- 32
2019-07-28 13:00:00 26.1 13 Oeste 33 Noroeste 0 -- -- 39
2019-07-28 12:00:00 24.4 13 Noroeste 28 Noroeste 0 -- -- 42
2019-07-28 11:00:00 22.7 15 Noroeste 29 Noroeste 0 -- -- 50
2019-07-28 10:00:00 21.1 18 Noroeste 32 Oeste 0 -- -- 54
2019-07-28 09:00:00 19 20 Oeste 31 Oeste 0 -- -- 62
2019-07-28 08:00:00 17.2 11 Sudoeste 26 Oeste 0 -- -- 66
2019-07-28 07:00:00 17.2 14 Oeste 26 Oeste 0 -- -- 65
2019-07-28 06:00:00 17 9 Sudoeste 27 Oeste 0 -- -- 65
2019-07-28 05:00:00 17.2 13 Oeste 25 Oeste 0 -- -- 64
2019-07-28 04:00:00 17.5 12 Sudoeste 29 Sudoeste 0 -- -- 64
2019-07-28 03:00:00 18.3 15 Oeste 34 Oeste 0 -- -- 59
2019-07-28 02:00:00 19.2 17 Oeste 30 Noroeste 0 -- -- 54
2019-07-28 01:00:00 19.5 21 Oeste 43 Oeste 0 -- -- 57
2019-07-28 00:00:00 20.2 21 Oeste 46 Oeste 0 -- -- 55
2019-07-27 23:00:00 21.3 31 Oeste 45 Oeste 0 -- -- 53
2019-07-26 12:00:00 27.2 15 Oeste 25 Sudoeste 0 -- -- 61
2019-07-26 11:00:00 27.5 9 Este 19 Sudeste 0 -- -- 61
2019-07-26 10:00:00 26.3 4 Noroeste 8 Oeste 0 -- -- 58
2019-07-26 09:00:00 24.4 5 Oeste 16 Nordeste 0 -- -- 64
2019-07-26 08:00:00 23.8 12 Nordeste 19 Este 0 -- -- 59
2019-07-26 07:00:00 23.8 11 Este 22 Este 0 -- -- 60
2019-07-26 06:00:00 23.9 2 Nordeste 21 Este 0 -- -- 61
2019-07-26 05:00:00 23.2 13 Este 21 Nordeste 1.6 -- -- 66
2019-07-26 04:00:00 25.9 8 Este 21 Sudeste 0 -- -- 50
2019-07-26 03:00:00 26.8 14 Sudeste 27 Sudeste 0 -- -- 42
2019-07-26 02:00:00 27.5 18 Sudeste 30 Sudeste 0 -- -- 37
2019-07-26 01:00:00 27.6 11 Este 28 Este 0 -- -- 36
2019-07-26 00:00:00 27.5 13 Sudeste 36 Sudeste 0 -- -- 40
2019-07-25 23:00:00 28.3 17 Sudeste 36 Sudeste 0 -- -- 41
2019-07-25 22:00:00 28.7 19 Sudeste 30 Sudeste 0 -- -- 46
2019-07-25 21:00:00 29.9 20 Sudeste 33 Este 0 -- -- 42
2019-07-25 20:00:00 30.7 15 Sudeste 26 Sudeste 0 -- -- 48
2019-07-25 19:00:00 32.6 14 Sur 42 Sudeste 0 -- -- 45
2019-07-25 18:00:00 33.6 28 Sudeste 48 Sudeste 0 -- -- 41
2019-07-25 17:00:00 35 22 Sudeste 41 Sudeste 0 -- -- 38
2019-07-25 16:00:00 36.3 20 Sudeste 37 Sudeste 0 -- -- 32
2019-07-25 15:00:00 36 18 Sur 33 Sur 0 -- -- 31
2019-07-25 14:00:00 35.4 20 Sur 31 Sur 0 -- -- 30
2019-07-25 13:00:00 34.6 11 Este 23 Este 0 -- -- 35
2019-07-25 12:00:00 32.6 9 Nordeste 21 Este 0 -- -- 39
2019-07-25 11:00:00 30.5 7 Este 15 Este 0 -- -- 41
2019-07-25 10:00:00 27.9 11 Nordeste 15 Nordeste 0 -- -- 47
2019-07-25 09:00:00 25.3 8 Nordeste 12 Este 0 -- -- 52
2019-07-25 08:00:00 22.4 3 Sudoeste 11 Este 0 -- -- 63
2019-07-25 07:00:00 22.9 8 Este 14 Este 0 -- -- 57
2019-07-25 06:00:00 24.3 8 Este 13 Este 0 -- -- 51
2019-07-25 05:00:00 24.7 4 Sudeste 17 Sudeste 0 -- -- 51
2019-07-25 04:00:00 25.2 9 Este 18 Este 0 -- -- 51
2019-07-25 03:00:00 25.8 11 Este 20 Este 0 -- -- 51
2019-07-25 02:00:00 26.8 10 Sudeste 31 Sudeste 0 -- -- 50
2019-07-25 01:00:00 27.4 12 Este 23 Este 0 -- -- 50
2019-07-25 00:00:00 27.9 15 Sudeste 33 Este 0 -- -- 52
2019-07-24 23:00:00 28.4 23 Sudeste 36 Sudeste 0 -- -- 53
2019-07-24 22:00:00 30.1 16 Sudeste 35 Sudeste 0 -- -- 46
2019-07-24 21:00:00 31.6 17 Sudeste 39 Sudeste 0 -- -- 43
2019-07-24 20:00:00 33.5 17 Sur 40 Sur 0 -- -- 39
2019-07-24 19:00:00 35.5 25 Sur 44 Sudeste 0 -- -- 31
2019-07-24 18:00:00 37.4 20 Sudeste 35 Sudeste 0 -- -- 28
2019-07-24 17:00:00 38.5 15 Sudeste 29 Sur 0 -- -- 25
2019-07-24 16:00:00 38.4 14 Sudeste 27 Sur 0 -- -- 29
2019-07-24 15:00:00 37.4 9 Sudeste 19 Este 0 -- -- 30
2019-07-24 14:00:00 36.4 9 Este 18 Este 0 -- -- 30
2019-07-24 13:00:00 34.4 7 Este 15 Nordeste 0 -- -- 33
2019-07-24 12:00:00 31.4 5 Este 13 Nordeste 0 -- -- 41
2019-07-24 11:00:00 29.3 5 Sudeste 15 Norte 0 -- -- 47
2019-07-24 10:00:00 26.4 3 Noroeste 10 Nordeste 0 -- -- 54
2019-07-24 09:00:00 23.5 5 Noroeste 12 Oeste 0 -- -- 57
2019-07-24 08:00:00 21.7 2 Norte 9 Oeste 0 -- -- 59
2019-07-24 07:00:00 21.4 5 Sur 8 Sudoeste 0 -- -- 59
2019-07-24 06:00:00 23.2 3 Sudeste 5 Sudeste 0 -- -- 50
2019-07-24 05:00:00 23 6 Oeste 13 Oeste 0 -- -- 51
2019-07-24 04:00:00 25.2 3 Norte 37 Noroeste 0 -- -- 44
2019-07-24 03:00:00 26.6 14 Sudeste 24 Sudeste 0 -- -- 41
2019-07-24 02:00:00 27.7 8 Este 13 Este 0 -- -- 38
2019-07-24 01:00:00 29 8 Este 22 Sudeste 0 -- -- 33
2019-07-24 00:00:00 30.1 15 Sudeste 26 Sudeste 0 -- -- 30